• Join FlightAware (Why Join?)
  • Login
  • US Flag 
07:01PM EDT


 

Airport Tracker/Info


-or-


 

Live Flight TrackerFlight Track Log ✈ SWA631 ✈ 11-Dec-2013 ✈ KBOS - KMKE

Flight Track Log - Related Links

Times and Time Zones

All times are in EST time to prevent confusion due to time zone crossing. See the SWA631 flight status page for this flight to view local times or setup timezone preferences in your user account.

Time Position Orientation Groundspeed Altitude Reporting Facility
EST Latitude Longitude Course Direction KTS MPH feet Rate Location/Type
09:09AM 42.3667 -71.0167 180° South 123 142 1,200  Level KA90
09:09AM 42.3500 -71.0167 180° South 164 189 1,800 2,580 Climbing KA90
09:10AM 42.3167 -70.9500 124° Southeast 251 289 4,600 2,760 Climbing KA90
09:11AM 42.3200 -70.8733 87° East 286 329 6,900 3,120 Climbing Boston Center
09:12AM 42.3478 -70.7653 71° East 330 380 10,400 3,000 Climbing Boston Center
09:13AM 42.4319 -70.7183 22° Northeast 337 388 13,000 3,120 Climbing Boston Center
09:14AM 42.5233 -70.7589 342° North 349 402 16,800 3,780 Climbing Boston Center
09:15AM 42.5783 -70.8547 308° West 325 374 20,900 3,600 Climbing Boston Center
09:16AM 42.6233 -70.9494 303° West 304 350 24,300 2,700 Climbing Boston Center
09:17AM 42.6736 -71.0539 303° West 329 379 26,400 2,460 Climbing Boston Center
09:18AM 42.7281 -71.1619 304° West 344 396 29,300 2,940 Climbing Boston Center
09:19AM 42.7839 -71.2856 302° West 324 373 32,500 2,520 Climbing Boston Center
09:20AM 42.7947 -71.4044 277° West 311 358 34,600 1,860 Climbing Boston Center
09:21AM 42.8053 -71.5208 277° West 311 358 36,300 1,620 Climbing Boston Center
09:22AM 42.8156 -71.6314 277° West 314 361 37,900 1,440 Climbing Boston Center
09:23AM 42.8272 -71.7475 278° West 312 359 39,300 960 Climbing Boston Center
09:24AM 42.8383 -71.8644 277° West 313 360 40,000 300 Climbing Boston Center
09:25AM 42.8497 -71.9847 277° West 320 368 40,000  Level Boston Center
09:26AM 42.8625 -72.1289 277° West 321 369 40,000  Level Boston Center
09:27AM 42.8739 -72.2508 277° West 327 376 40,000  Level Boston Center
09:28AM 42.8833 -72.3542 277° West 321 369 40,000  Level Boston Center
09:29AM 42.8953 -72.4997 276° West 324 373 40,000  Level Boston Center
09:30AM 42.9064 -72.6178 277° West 316 364 40,000  Level Boston Center
09:31AM 42.9172 -72.7381 277° West 312 359 40,000  Level Boston Center
09:32AM 42.9267 -72.8575 276° West 315 362 40,000  Level Boston Center
09:33AM 42.9372 -72.9786 277° West 321 369 40,000  Level Boston Center
09:34AM 42.9467 -73.0864 277° West 329 379 40,000  Level Boston Center
09:35AM 42.9589 -73.2350 276° West 332 382 40,000  Level Boston Center
09:36AM 42.9692 -73.3567 277° West 327 376 40,000  Level Boston Center
09:37AM 42.9778 -73.4844 275° West 319 367 40,000  Level Boston Center
09:38AM 42.9875 -73.6061 276° West 323 372 40,000  Level Boston Center
09:39AM 42.9978 -73.7275 277° West 323 372 40,000  Level Boston Center
09:40AM 43.0069 -73.8464 276° West 318 366 40,000  Level Boston Center
09:41AM 43.0158 -73.9644 276° West 313 360 40,000  Level Boston Center
09:42AM 43.0244 -74.0847 276° West 317 365 40,000  Level Boston Center
09:44AM 43.0333 -74.2050 276° West 319 367 40,000  Level Boston Center
09:45AM 43.0419 -74.3275 276° West 323 372 40,000  Level Boston Center
09:46AM 43.0508 -74.4481 276° West 321 369 40,000  Level Boston Center
09:47AM 43.0589 -74.5742 275° West 330 380 40,000  Level Boston Center
09:48AM 43.0669 -74.6994 275° West 330 380 40,000  Level Boston Center
09:49AM 43.0675 -74.8231 270° West 327 376 40,000  Level Boston Center
09:50AM 43.0500 -74.9686 261° West 323 372 40,000  Level Boston Center
09:51AM 43.0367 -75.0919 262° West 325 374 40,000  Level Boston Center
09:52AM 43.0231 -75.2153 261° West 326 375 40,000  Level Boston Center
09:53AM 43.0086 -75.3369 261° West 323 372 40,000  Level Boston Center
09:54AM 42.9958 -75.4578 262° West 322 371 40,000  Level Boston Center
09:55AM 42.9817 -75.5794 261° West 322 371 40,000  Level Boston Center
09:56AM 42.9683 -75.6992 261° West 320 368 40,000  Level Boston Center
09:57AM 42.9533 -75.8189 260° West 320 368 40,000  Level Boston Center
09:58AM 42.9389 -75.9389 261° West 320 368 40,000  Level Boston Center
09:59AM 42.9244 -76.0600 261° West 323 372 40,000  Level Boston Center
10:00AM 42.9100 -76.1803 261° West 323 372 40,000  Level Boston Center
10:01AM 42.8956 -76.3008 261° West 323 372 40,000  Level Boston Center
10:02AM 42.8803 -76.4233 260° West 328 377 40,000  Level Boston Center
10:03AM 42.8622 -76.5689 260° West 327 376 40,000  Level Boston Center
10:04AM 42.8481 -76.6819 260° West 326 375 40,000  Level Boston Center
10:05AM 42.8325 -76.8022 260° West 325 374 40,000  Level Boston Center
10:06AM 42.8175 -76.9239 260° West 327 376 40,000  Level Boston Center
10:07AM 42.8019 -77.0428 260° West 321 369 40,000  Level Boston Center
10:08AM 42.7872 -77.1617 260° West 321 369 40,000  Level Cleveland Center
10:09AM 42.7717 -77.2811 260° West 323 372 40,000  Level Cleveland Center
10:10AM 42.7550 -77.4006 259° West 324 373 40,000  Level Cleveland Center
10:11AM 42.7392 -77.5192 260° West 323 372 40,000  Level Cleveland Center
10:12AM 42.7261 -77.6528 262° West 327 376 40,000  Level Cleveland Center
10:13AM 42.7078 -77.7758 259° West 331 381 40,000  Level Cleveland Center
10:14AM 42.6881 -77.9017 258° West 330 380 40,000  Level Cleveland Center
10:15AM 42.6711 -78.0236 259° West 329 379 40,000  Level Cleveland Center
10:16AM 42.6514 -78.1694 260° West 330 380 40,000  Level Cleveland Center
10:17AM 42.6344 -78.2914 259° West 329 379 40,000  Level Cleveland Center
10:18AM 42.6175 -78.4128 259° West 328 377 40,000  Level Cleveland Center
10:19AM 42.6008 -78.5333 259° West 327 376 40,000  Level Cleveland Center
10:20AM 42.5814 -78.6556 258° West 329 379 40,000  Level Cleveland Center
10:21AM 42.5647 -78.7764 259° West 327 376 40,000  Level Cleveland Center
10:22AM 42.5439 -78.9217 259° West 327 376 40,000  Level Cleveland Center
10:23AM 42.5253 -79.0419 258° West 326 375 40,000  Level Cleveland Center
10:24AM 42.5081 -79.1631 259° West 326 375 40,000  Level Cleveland Center
10:25AM 42.4914 -79.2847 260° West 328 377 40,000  Level Cleveland Center
10:26AM 42.4981 -79.4078 274° West 330 380 40,000  Level Cleveland Center
10:27AM 42.5036 -79.5325 273° West 331 381 40,000  Level Cleveland Center
10:28AM 42.5108 -79.6811 274° West 332 382 40,000  Level Cleveland Center
10:30AM 42.5175 -79.8039 274° West 327 376 40,000  Level Cleveland Center
10:31AM 42.5219 -79.9286 273° West 332 382 40,000  Level Cleveland Center
10:32AM 42.5267 -80.0606 273° West 329 379 40,000  Level Cleveland Center
10:33AM 42.5319 -80.1853 273° West 329 379 40,000  Level Cleveland Center
10:34AM 42.5375 -80.3106 273° West 331 381 40,000  Level Cleveland Center
10:35AM 42.5411 -80.4353 272° West 329 379 40,000  Level Cleveland Center
10:36AM 42.5469 -80.5611 274° West 331 381 40,000  Level Cleveland Center
10:37AM 42.5517 -80.6867 273° West 330 380 40,000  Level Cleveland Center
10:38AM 42.5564 -80.8164 273° West 340 391 40,000  Level Cleveland Center
10:39AM 42.5622 -80.9628 273° West 333 383 40,000  Level Cleveland Center
10:40AM 42.5669 -81.0875 273° West 331 381 40,000  Level Cleveland Center
10:41AM 42.5706 -81.2133 272° West 331 381 40,000  Level Cleveland Center
10:42AM 42.5750 -81.3389 273° West 331 381 40,000  Level Cleveland Center
10:43AM 42.5836 -81.4656 275° West 333 383 40,000  Level Cleveland Center
10:44AM 42.6061 -81.5881 284° West 333 383 40,000  Level Cleveland Center
10:45AM 42.6283 -81.7122 284° West 336 387 40,000  Level Cleveland Center
10:46AM 42.6494 -81.8353 283° West 337 388 40,000  Level Cleveland Center
10:47AM 42.6750 -81.9833 283° West 337 388 40,000  Level Cleveland Center
10:48AM 42.6964 -82.1067 283° West 338 389 40,000  Level Cleveland Center
10:49AM 42.7181 -82.2325 283° West 341 392 40,000  Level Cleveland Center
10:50AM 42.7403 -82.3592 283° West 345 397 40,000  Level Cleveland Center
10:51AM 42.7606 -82.4850 282° West 344 396 40,000  Level Cleveland Center
10:52AM 42.7867 -82.6383 283° West 348 400 40,000  Level Cleveland Center
10:53AM 42.8083 -82.7667 283° West 350 403 40,000  Level Cleveland Center
10:54AM 42.8292 -82.8933 283° West 348 400 40,000  Level Cleveland Center
10:55AM 42.8503 -83.0222 283° West 349 402 40,000  Level Cleveland Center
10:56AM 42.8708 -83.1492 283° West 347 399 40,000  Level Cleveland Center
10:57AM 42.8914 -83.2761 283° West 345 397 40,000  Level Cleveland Center
10:58AM 42.9156 -83.4306 282° West 349 402 40,000  Level Cleveland Center
10:59AM 42.9358 -83.5594 282° West 349 402 40,000  Level Cleveland Center
11:00AM 42.9569 -83.6864 283° West 347 399 40,000  Level Cleveland Center
11:02AM 42.9731 -83.8156 280° West 347 399 40,000  Level Cleveland Center
11:03AM 42.9847 -83.9444 277° West 345 397 40,000  Level Cleveland Center
11:04AM 42.9997 -84.0981 278° West 342 394 40,000  Level Cleveland Center
11:05AM 43.0131 -84.2256 278° West 341 392 40,000  Level Cleveland Center
11:06AM 43.0244 -84.3558 277° West 345 397 40,000  Level Cleveland Center
11:07AM 43.0389 -84.5117 277° West 345 397 40,000  Level Chicago Center
11:08AM 43.0517 -84.6428 278° West 348 400 40,000  Level Chicago Center
11:09AM 43.0633 -84.7742 277° West 349 402 40,000  Level Chicago Center
11:10AM 43.0753 -84.9064 277° West 352 405 40,000  Level Chicago Center
11:11AM 43.0867 -85.0361 277° West 347 399 40,000 -360 Level Chicago Center
11:12AM 43.1000 -85.1956 277° West 352 405 39,300 -840 Descending Chicago Center
11:13AM 43.1108 -85.3269 276° West 349 402 38,300 -960 Descending Chicago Center
11:14AM 43.1219 -85.4567 277° West 348 400 37,400 -960 Descending Chicago Center
11:15AM 43.1325 -85.5878 276° West 347 399 36,400 -960 Descending Chicago Center
11:16AM 43.1433 -85.7161 277° West 343 395 35,500 -960 Descending Chicago Center
11:17AM 43.1533 -85.8458 276° West 346 398 34,500 -1,080 Descending Chicago Center
11:18AM 43.1653 -85.9967 276° West 342 394 33,400 -1,020 Descending Chicago Center
11:19AM 43.1686 -86.1219 272° West 339 390 32,400 -960 Descending Chicago Center
11:20AM 43.1664 -86.2456 269° West 332 382 31,500 -1,380 Descending Chicago Center
11:21AM 43.1644 -86.3706 269° West 331 381 29,600 -2,640 Descending Chicago Center
11:22AM 43.1625 -86.5183 269° West 327 376 26,100 -3,000 Descending Chicago Center
11:23AM 43.1608 -86.6317 269° West 308 354 23,400 -2,700 Descending Chicago Center
11:24AM 43.1586 -86.7528 269° West 313 360 20,600 -2,700 Descending Chicago Center
11:25AM 43.1556 -86.8672 268° West 309 356 17,900 -2,700 Descending Chicago Center
11:26AM 43.1531 -86.9775 268° West 295 339 15,100 -2,220 Descending Chicago Center
11:27AM 43.1389 -87.0825 260° West 291 335 13,400 -1,500 Descending Chicago Center
11:28AM 43.1089 -87.1672 244° Southwest 256 295 12,100 -1,680 Descending Chicago Center
11:29AM 43.0744 -87.2669 245° Southwest 244 281 10,000 -1,080 Descending Chicago Center
11:31AM 43.0447 -87.3503 244° Southwest 245 282 10,000 -600 Level Chicago Center
11:32AM 43.0142 -87.4325 243° Southwest 244 281 8,800 -1,440 Descending Chicago Center
11:33AM 42.9836 -87.5161 243° Southwest 246 283 7,100 -1,740 Descending Chicago Center
11:34AM 42.9533 -87.5983 243° Southwest 245 282 5,300 -1,500 Descending Chicago Center
11:35AM 42.9225 -87.6800 243° Southwest 244 281 4,000 -1,080 Descending Chicago Center
11:36AM 42.9000 -87.8167 257° West 166 191 2,300 -900 Descending KMKE
11:37AM 42.9000 -87.8833 270° West 118 136 1,600 -720 Descending KMKE
11:38AM 42.9333 -87.9000 340° North 111 128 900 -720 Descending KMKE
11:40AM 42.9333 -87.8833 90° East  Level FlightAware Approximate
11:47AM 42.9469 -87.8971 90° East  Level Estimated